Terminal Aerodrome Forecast
Issued by NWS Wilmington, OH

Current Version | Previous Version | Graphics & Text | Print | Product List | Glossary On
Versions: 1 2 3 4 5 6 7 8 9 10 11 12 13 14 15 16 17 18 19
901
FTUS41 KILN 241121
TAFCMH
TAF
KCMH 241121Z 2412/2512 11007KT P6SM FEW015 OVC130
      TEMPO 2412/2414 BKN015
     FM241600 10007KT P6SM VCSH OVC045
     FM242000 08005KT 4SM SHRA OVC025
     FM250300 13005KT P6SM VCSH OVC015
     FM250500 16005KT 4SM BR VCSH OVC015=

USA.gov is the U.S. government's official web portal to all federal, state and local government web resources and services.